createdAt,value
2022-10-14T00:02:44.488Z,14.45
2022-10-14T00:05:46.917Z,15.38
2022-10-14T00:08:51.269Z,15.75
2022-10-14T00:11:53.622Z,15.57
2022-10-14T00:14:56.341Z,16.07
2022-10-14T00:17:58.735Z,17.75
2022-10-14T00:21:02.348Z,17.90
2022-10-14T00:24:07.349Z,16.10
2022-10-14T00:27:09.775Z,15.15
2022-10-14T00:30:12.477Z,13.77
2022-10-14T00:33:14.821Z,13.98
2022-10-14T00:36:20.167Z,13.98
2022-10-14T00:39:22.669Z,14.52
2022-10-14T00:42:26.268Z,12.70
2022-10-14T00:45:28.703Z,14.50
2022-10-14T00:48:31.023Z,13.75
2022-10-14T00:51:34.935Z,14.07
2022-10-14T00:54:40.871Z,13.70
2022-10-14T00:57:43.604Z,12.15
2022-10-14T01:00:46.106Z,13.83
2022-10-14T01:03:49.135Z,12.25
2022-10-14T01:07:08.002Z,11.35
2022-10-14T01:10:33.013Z,12.85
2022-10-14T01:13:38.236Z,11.73
2022-10-14T01:16:52.906Z,11.53
2022-10-14T01:20:07.256Z,10.35
2022-10-14T01:23:23.479Z,11.73
2022-10-14T01:26:34.349Z,11.10
2022-10-14T01:29:48.448Z,11.68
2022-10-14T01:32:53.423Z,12.97
2022-10-14T01:36:26.017Z,11.60
2022-10-14T01:39:32.060Z,11.85
2022-10-14T01:42:39.126Z,11.60
2022-10-14T01:45:43.055Z,12.05
2022-10-14T01:48:51.425Z,12.57
2022-10-14T01:52:00.322Z,13.10
2022-10-14T01:55:06.384Z,12.65
2022-10-14T01:58:11.458Z,13.70
2022-10-14T02:01:15.354Z,13.20
2022-10-14T02:04:22.255Z,12.70
2022-10-14T02:07:31.326Z,13.35
2022-10-14T02:11:01.879Z,12.32
2022-10-14T02:14:26.696Z,12.13
2022-10-14T02:17:42.960Z,11.30
2022-10-14T02:21:07.983Z,12.60
2022-10-14T02:24:23.189Z,11.48
2022-10-14T02:27:28.291Z,11.43
2022-10-14T02:30:33.245Z,10.73
2022-10-14T02:33:41.062Z,11.07
2022-10-14T02:36:45.335Z,12.60
2022-10-14T02:40:12.066Z,10.90
2022-10-14T02:43:14.572Z,9.90
2022-10-14T02:46:21.200Z,11.43
2022-10-14T02:49:24.162Z,10.93
2022-10-14T02:52:27.647Z,9.87
2022-10-14T02:55:30.567Z,10.48
2022-10-14T02:58:33.052Z,9.50
2022-10-14T03:01:37.722Z,9.57
2022-10-14T03:04:42.271Z,10.18
2022-10-14T03:07:45.338Z,10.13
2022-10-14T03:10:50.112Z,10.65
2022-10-14T03:13:52.542Z,11.00
2022-10-14T03:16:56.488Z,10.57
2022-10-14T03:20:00.776Z,10.23
2022-10-14T03:23:03.224Z,11.30
2022-10-14T03:26:13.704Z,11.07
2022-10-14T03:29:19.241Z,10.60
2022-10-14T03:32:37.261Z,10.65
2022-10-14T03:35:58.081Z,11.00
2022-10-14T03:39:14.140Z,10.77
2022-10-14T03:42:24.726Z,10.93
2022-10-14T03:45:28.475Z,13.65
2022-10-14T03:48:31.772Z,19.73
2022-10-14T03:51:34.207Z,39.55
2022-10-14T03:54:44.731Z,10.03
2022-10-14T03:57:50.615Z,9.32
2022-10-14T04:00:56.468Z,9.57
2022-10-14T04:04:16.820Z,10.82
2022-10-14T04:07:20.649Z,11.05
2022-10-14T04:10:31.352Z,8.97
2022-10-14T04:13:37.091Z,9.52
2022-10-14T04:16:40.283Z,10.02
2022-10-14T04:19:47.253Z,10.75
2022-10-14T04:22:52.259Z,10.20
2022-10-14T04:25:56.242Z,9.33
2022-10-14T04:29:00.010Z,9.27
2022-10-14T04:32:16.242Z,9.40
2022-10-14T04:35:18.707Z,9.90
2022-10-14T04:38:27.255Z,12.63
2022-10-14T04:41:34.652Z,11.03
2022-10-14T04:44:37.837Z,9.60
2022-10-14T04:47:43.837Z,11.02
2022-10-14T04:50:53.424Z,11.82
2022-10-14T04:54:10.162Z,11.73
2022-10-14T04:57:26.016Z,11.63
2022-10-14T05:00:28.695Z,11.88
2022-10-14T05:03:38.457Z,12.32
2022-10-14T05:06:41.184Z,12.80
2022-10-14T05:09:50.369Z,13.23
2022-10-14T05:13:03.261Z,14.40
2022-10-14T05:16:10.613Z,15.57
2022-10-14T05:19:14.206Z,22.15
2022-10-14T05:22:25.273Z,22.70
2022-10-14T05:25:27.718Z,15.18
2022-10-14T05:28:31.231Z,13.17
2022-10-14T05:31:33.845Z,15.38
2022-10-14T05:34:43.289Z,14.68
2022-10-14T05:38:01.941Z,13.38
2022-10-14T05:41:11.094Z,13.27
2022-10-14T05:44:14.708Z,15.43
2022-10-14T05:47:18.070Z,15.60
2022-10-14T05:50:22.802Z,15.40
2022-10-14T05:53:25.977Z,17.25
2022-10-14T05:56:30.407Z,14.98
2022-10-14T05:59:40.586Z,14.47
2022-10-14T06:02:43.271Z,14.23
2022-10-14T06:05:49.009Z,13.82
2022-10-14T06:08:51.606Z,15.02
2022-10-14T06:11:55.738Z,13.18
2022-10-14T06:14:58.436Z,14.00
2022-10-14T06:18:00.923Z,13.02
2022-10-14T06:21:03.977Z,12.90
2022-10-14T06:24:06.873Z,13.82
2022-10-14T06:27:09.483Z,14.13
2022-10-14T06:30:12.583Z,14.73
2022-10-14T06:33:14.997Z,13.10
2022-10-14T06:36:17.486Z,13.93
2022-10-14T06:39:19.930Z,14.50
2022-10-14T06:42:22.575Z,14.23
2022-10-14T06:45:26.102Z,13.87
2022-10-14T06:48:28.785Z,13.02
2022-10-14T06:51:31.218Z,13.32
2022-10-14T06:54:38.901Z,13.77
2022-10-14T06:57:41.999Z,13.45
2022-10-14T07:00:48.010Z,14.33
2022-10-14T07:03:54.190Z,13.77
2022-10-14T07:06:59.036Z,12.93
2022-10-14T07:10:01.459Z,12.55
2022-10-14T07:13:04.116Z,12.85
2022-10-14T07:16:06.957Z,14.90
2022-10-14T07:19:09.729Z,39.15
2022-10-14T07:22:12.574Z,12.13
2022-10-14T07:25:15.112Z,11.77
2022-10-14T07:28:17.619Z,11.82
2022-10-14T07:31:20.169Z,11.23
2022-10-14T07:34:22.666Z,13.18
2022-10-14T07:37:25.438Z,13.75
2022-10-14T07:40:28.165Z,11.23
2022-10-14T07:43:32.218Z,11.60
2022-10-14T07:46:39.515Z,12.60
2022-10-14T07:49:41.875Z,12.50
2022-10-14T07:52:44.491Z,12.13
2022-10-14T07:55:52.093Z,11.20
2022-10-14T07:58:55.589Z,11.88
2022-10-14T08:01:58.028Z,11.20
2022-10-14T08:05:25.428Z,11.75
2022-10-14T08:08:24.308Z,16.95
2022-10-14T08:11:28.069Z,14.20
2022-10-14T08:14:30.412Z,11.85
2022-10-14T08:17:33.157Z,12.43
2022-10-14T08:20:35.770Z,13.10
2022-10-14T08:23:41.330Z,13.05
2022-10-14T08:26:54.689Z,11.65
2022-10-14T08:29:57.546Z,11.50
2022-10-14T08:33:00.183Z,11.27
2022-10-14T08:36:02.730Z,10.65
2022-10-14T08:39:06.437Z,10.57
2022-10-14T08:42:39.585Z,10.98
2022-10-14T08:45:54.495Z,9.82
2022-10-14T08:49:05.644Z,10.93
2022-10-14T08:52:12.750Z,10.20
2022-10-14T08:55:25.905Z,11.77
2022-10-14T08:58:34.510Z,11.63
2022-10-14T09:01:44.814Z,10.77
2022-10-14T09:04:47.223Z,10.40
2022-10-14T09:10:59.177Z,12.13
2022-10-14T09:14:02.792Z,11.02
2022-10-14T09:20:24.720Z,10.73
2022-10-14T09:23:27.742Z,11.20
2022-10-14T09:26:39.500Z,10.18
2022-10-14T09:29:41.860Z,9.50
2022-10-14T09:32:51.012Z,9.77
2022-10-14T09:35:53.466Z,9.77
2022-10-14T09:38:56.568Z,10.50
2022-10-14T09:41:59.664Z,9.38
2022-10-14T09:48:40.050Z,9.07
2022-10-14T09:51:43.242Z,11.50
2022-10-14T09:54:51.947Z,18.77
2022-10-14T09:58:08.746Z,10.32
2022-10-14T10:01:25.796Z,11.20
2022-10-14T10:04:42.893Z,11.82
2022-10-14T10:08:01.499Z,9.43
2022-10-14T10:11:13.723Z,8.70
2022-10-14T10:14:23.271Z,11.70
2022-10-14T10:17:27.678Z,10.07
2022-10-14T10:20:33.957Z,10.50
2022-10-14T10:23:36.717Z,9.60
2022-10-14T10:26:39.196Z,8.43
2022-10-14T10:29:41.763Z,10.55
2022-10-14T10:32:50.525Z,10.35
2022-10-14T10:35:56.114Z,15.40
2022-10-14T10:39:30.123Z,14.23
2022-10-14T10:42:39.462Z,16.55
2022-10-14T10:46:12.914Z,10.30
2022-10-14T10:49:18.911Z,8.95
2022-10-14T10:52:21.785Z,8.27
2022-10-14T10:55:27.690Z,8.00
2022-10-14T11:02:40.672Z,8.52
2022-10-14T11:05:46.088Z,7.35
2022-10-14T11:09:22.051Z,8.27
2022-10-14T11:12:33.480Z,8.07
2022-10-14T11:15:50.825Z,8.38
2022-10-14T11:19:02.891Z,8.95
2022-10-14T11:22:28.938Z,6.72
2022-10-14T11:25:44.531Z,6.32
2022-10-14T11:28:53.627Z,6.83
2022-10-14T11:32:07.483Z,7.32
2022-10-14T11:38:52.420Z,6.60
2022-10-14T11:42:13.856Z,7.18
2022-10-14T11:45:18.738Z,7.40
2022-10-14T11:48:29.754Z,7.88
2022-10-14T11:51:35.871Z,7.90
2022-10-14T11:54:38.430Z,7.82
2022-10-14T11:57:49.639Z,6.97
2022-10-14T12:00:54.185Z,6.50
2022-10-14T12:04:14.777Z,7.88
2022-10-14T12:07:19.978Z,7.25
2022-10-14T12:10:27.836Z,7.07
2022-10-14T12:13:41.746Z,8.40
2022-10-14T12:16:46.307Z,6.90
2022-10-14T12:19:49.758Z,7.50
2022-10-14T12:22:53.096Z,7.55
2022-10-14T12:26:18.105Z,7.97
2022-10-14T12:29:26.270Z,7.88
2022-10-14T12:32:33.150Z,7.77
2022-10-14T12:35:53.575Z,7.13
2022-10-14T12:39:18.009Z,7.13
2022-10-14T12:42:21.480Z,6.95
2022-10-14T12:45:26.787Z,7.25
2022-10-14T12:48:33.974Z,7.87
2022-10-14T12:51:36.348Z,8.13
2022-10-14T12:54:46.808Z,8.15
2022-10-14T12:58:03.296Z,7.18
2022-10-14T13:01:17.161Z,7.60
2022-10-14T13:04:20.999Z,10.77
2022-10-14T13:07:47.129Z,7.40
2022-10-14T13:10:58.964Z,7.85
2022-10-14T13:14:01.882Z,7.60
2022-10-14T13:17:29.674Z,8.55
2022-10-14T13:20:34.754Z,8.17
2022-10-14T13:23:41.613Z,8.02
2022-10-14T13:26:53.015Z,7.00
2022-10-14T13:29:55.536Z,8.23
2022-10-14T13:33:00.086Z,7.30
2022-10-14T13:36:05.659Z,7.60
2022-10-14T13:39:09.791Z,7.22
2022-10-14T13:42:32.236Z,7.70
2022-10-14T13:45:41.308Z,7.75
2022-10-14T13:48:47.402Z,8.20
2022-10-14T13:51:53.397Z,7.47
2022-10-14T13:55:14.468Z,7.32
2022-10-14T13:58:23.547Z,7.45
2022-10-14T14:01:33.527Z,8.02
2022-10-14T14:04:37.020Z,7.60
2022-10-14T14:11:16.264Z,7.60
2022-10-14T14:14:22.494Z,7.85
2022-10-14T14:17:32.895Z,8.00
2022-10-14T14:20:38.402Z,7.88
2022-10-14T14:23:57.808Z,8.70
2022-10-14T14:27:00.802Z,11.00
2022-10-14T14:30:08.397Z,11.13
2022-10-14T14:33:13.582Z,9.15
2022-10-14T14:36:27.963Z,7.80
2022-10-14T14:39:42.438Z,8.17
2022-10-14T14:42:46.680Z,7.70
2022-10-14T14:45:49.061Z,8.02
2022-10-14T14:48:54.590Z,7.65
2022-10-14T14:51:57.896Z,7.93
2022-10-14T14:55:00.288Z,7.20
2022-10-14T14:58:04.208Z,7.30
2022-10-14T15:01:07.010Z,7.45
2022-10-14T15:04:17.379Z,7.40
2022-10-14T15:07:21.936Z,7.68
2022-10-14T15:10:31.500Z,9.20
2022-10-14T15:13:39.745Z,7.55
2022-10-14T15:16:42.796Z,7.53
2022-10-14T15:19:45.442Z,8.52
2022-10-14T15:22:48.993Z,8.43
2022-10-14T15:26:00.010Z,8.73
2022-10-14T15:32:27.061Z,8.30
2022-10-14T15:35:29.818Z,7.13
2022-10-14T15:41:40.798Z,7.53
2022-10-14T15:44:43.201Z,7.40
2022-10-14T15:47:46.509Z,8.30
2022-10-14T15:50:49.035Z,8.82
2022-10-14T15:53:51.935Z,8.98
2022-10-14T15:59:59.128Z,9.05
2022-10-14T16:03:03.660Z,10.05
2022-10-14T16:06:06.296Z,7.60
2022-10-14T16:09:08.745Z,10.13
2022-10-14T16:12:13.350Z,12.77
2022-10-14T16:15:22.073Z,12.35
2022-10-14T16:18:24.841Z,10.98
2022-10-14T16:21:33.671Z,12.20
2022-10-14T16:24:35.982Z,13.15
2022-10-14T16:27:41.901Z,12.73
2022-10-14T16:30:48.662Z,11.40
2022-10-14T16:33:52.580Z,11.73
2022-10-14T16:36:55.336Z,12.95
2022-10-14T16:39:57.763Z,13.23
2022-10-14T16:43:00.227Z,13.57
2022-10-14T16:46:03.849Z,12.52
2022-10-14T16:49:07.226Z,13.35
2022-10-14T16:52:09.900Z,16.10
2022-10-14T16:55:12.352Z,42.97
2022-10-14T16:58:15.761Z,35.40
2022-10-14T17:01:18.162Z,29.95
2022-10-14T17:04:20.975Z,26.17
2022-10-14T17:07:27.050Z,26.50
2022-10-14T17:10:29.427Z,18.60
2022-10-14T17:13:31.897Z,16.03
2022-10-14T17:16:34.459Z,16.02
2022-10-14T17:19:37.176Z,17.05
2022-10-14T17:22:39.784Z,15.15
2022-10-14T17:25:44.322Z,34.78
2022-10-14T17:28:47.825Z,19.37
2022-10-14T17:31:50.472Z,32.83
2022-10-14T17:34:53.571Z,30.65
2022-10-14T17:37:56.129Z,21.65
2022-10-14T17:41:08.871Z,24.55
2022-10-14T17:44:11.669Z,50.03
2022-10-14T17:47:14.044Z,29.05
2022-10-14T17:50:17.066Z,27.30
2022-10-14T17:53:19.483Z,17.55
2022-10-14T17:56:21.892Z,16.77
2022-10-14T17:59:24.289Z,18.60
2022-10-14T18:02:28.207Z,18.55
2022-10-14T18:05:31.416Z,22.88
2022-10-14T18:08:33.860Z,23.27
2022-10-14T18:12:07.786Z,35.63
2022-10-14T18:15:05.680Z,172.17
2022-10-14T18:18:08.505Z,79.10
2022-10-14T18:21:10.934Z,98.68
2022-10-14T18:24:13.599Z,104.68
2022-10-14T18:27:16.048Z,34.60
2022-10-14T18:30:18.573Z,66.53
2022-10-14T18:33:20.899Z,61.58
2022-10-14T18:36:25.644Z,53.78
2022-10-14T18:39:28.128Z,46.97
2022-10-14T18:42:30.526Z,53.38
2022-10-14T18:45:34.824Z,34.97
2022-10-14T18:48:37.344Z,33.20
2022-10-14T18:51:40.496Z,29.08
2022-10-14T18:54:42.982Z,35.92
2022-10-14T18:57:46.066Z,23.95
2022-10-14T19:00:48.562Z,20.83
2022-10-14T19:03:51.322Z,18.70
2022-10-14T19:06:54.224Z,14.40
2022-10-14T19:09:57.893Z,10.82
2022-10-14T19:13:00.498Z,10.05
2022-10-14T19:16:17.149Z,11.23
2022-10-14T19:19:20.322Z,10.85
2022-10-14T19:22:23.080Z,11.43
2022-10-14T19:25:25.753Z,11.85
2022-10-14T19:28:28.237Z,11.57
2022-10-14T19:31:33.022Z,11.77
2022-10-14T19:34:35.410Z,14.55
2022-10-14T19:37:37.762Z,15.50
2022-10-14T19:40:40.519Z,16.65
2022-10-14T19:43:42.859Z,16.23
2022-10-14T19:46:45.490Z,17.23
2022-10-14T19:49:47.842Z,16.55
2022-10-14T19:52:50.299Z,14.52
2022-10-14T19:55:52.746Z,14.15
2022-10-14T19:58:57.393Z,15.68
2022-10-14T20:01:59.770Z,12.43
2022-10-14T20:05:02.095Z,11.88
2022-10-14T20:08:04.559Z,31.05
2022-10-14T20:11:09.299Z,30.60
2022-10-14T20:14:11.650Z,30.58
2022-10-14T20:17:14.142Z,29.30
2022-10-14T20:20:16.693Z,28.10
2022-10-14T20:23:19.716Z,26.92
2022-10-14T20:26:22.447Z,26.90
2022-10-14T20:29:24.972Z,30.42
2022-10-14T20:32:27.383Z,29.70
2022-10-14T20:38:38.135Z,23.00
2022-10-14T20:41:40.505Z,23.92
2022-10-14T20:44:43.196Z,26.05
2022-10-14T20:47:53.272Z,24.40
2022-10-14T20:50:56.692Z,24.45
2022-10-14T20:54:03.094Z,24.48
2022-10-14T20:57:06.646Z,24.25
2022-10-14T21:00:09.933Z,26.17
2022-10-14T21:03:12.473Z,32.20
2022-10-14T21:06:20.500Z,44.55
2022-10-14T21:09:22.831Z,37.92
2022-10-14T21:12:26.217Z,38.95
2022-10-14T21:15:28.872Z,30.23
2022-10-14T21:18:31.194Z,31.37
2022-10-14T21:21:36.994Z,30.50
2022-10-14T21:24:47.569Z,27.52
2022-10-14T21:27:49.985Z,26.95
2022-10-14T21:30:52.295Z,29.60
2022-10-14T21:33:58.005Z,27.60
2022-10-14T21:37:03.714Z,27.50
2022-10-14T21:40:06.907Z,28.20
2022-10-14T21:43:09.444Z,25.70
2022-10-14T21:46:13.963Z,25.60
2022-10-14T21:49:16.630Z,25.60
2022-10-14T21:52:19.025Z,26.30
2022-10-14T21:55:21.389Z,26.85
2022-10-14T21:58:24.134Z,27.27
2022-10-14T22:01:28.717Z,29.58
2022-10-14T22:04:34.508Z,29.17
2022-10-14T22:07:39.892Z,28.38
2022-10-14T22:10:43.591Z,27.40
2022-10-14T22:13:46.720Z,27.80
2022-10-14T22:16:49.068Z,26.77
2022-10-14T22:19:51.401Z,26.40
2022-10-14T22:22:54.450Z,25.52
2022-10-14T22:26:02.545Z,24.38
2022-10-14T22:29:08.128Z,22.25
2022-10-14T22:32:10.439Z,24.05
2022-10-14T22:35:12.797Z,20.67
2022-10-14T22:38:15.255Z,21.02
2022-10-14T22:41:18.571Z,18.92
2022-10-14T22:44:20.900Z,20.85
2022-10-14T22:47:23.611Z,20.25
2022-10-14T22:50:26.275Z,18.63
2022-10-14T22:53:29.242Z,18.45
2022-10-14T22:56:32.158Z,17.30
2022-10-14T22:59:34.626Z,18.55
2022-10-14T23:02:37.094Z,19.30
2022-10-14T23:05:39.934Z,18.80
2022-10-14T23:08:42.400Z,17.48
2022-10-14T23:11:44.875Z,17.73
2022-10-14T23:14:47.289Z,17.55
2022-10-14T23:17:49.606Z,19.40
2022-10-14T23:20:52.597Z,18.37
2022-10-14T23:23:59.865Z,18.13
2022-10-14T23:27:02.309Z,17.33
2022-10-14T23:30:06.008Z,16.60
2022-10-14T23:33:10.849Z,20.35
2022-10-14T23:36:14.129Z,16.83
2022-10-14T23:39:16.592Z,17.38
2022-10-14T23:42:19.089Z,17.05
2022-10-14T23:45:21.541Z,16.70
2022-10-14T23:48:24.146Z,15.65
2022-10-14T23:51:26.501Z,16.27
2022-10-14T23:54:28.833Z,18.42
2022-10-14T23:57:31.213Z,15.27
